createdAt,value
2023-02-06T00:01:11.093Z,24.88
2023-02-06T00:03:37.828Z,23.52
2023-02-06T00:06:04.725Z,23.45
2023-02-06T00:08:31.518Z,21.45
2023-02-06T00:10:58.296Z,28.75
2023-02-06T00:13:25.027Z,24.08
2023-02-06T00:15:51.734Z,27.58
2023-02-06T00:18:18.499Z,25.63
2023-02-06T00:20:45.238Z,26.75
2023-02-06T00:23:11.960Z,26.08
2023-02-06T00:25:38.658Z,24.30
2023-02-06T00:28:05.732Z,25.73
2023-02-06T00:30:32.623Z,21.80
2023-02-06T00:32:59.300Z,26.75
2023-02-06T00:35:26.000Z,25.20
2023-02-06T00:37:52.690Z,27.10
2023-02-06T00:40:19.484Z,26.10
2023-02-06T00:42:46.133Z,26.40
2023-02-06T00:45:12.924Z,25.67
2023-02-06T00:47:39.692Z,25.98
2023-02-06T00:50:06.584Z,25.00
2023-02-06T00:52:33.301Z,23.17
2023-02-06T00:54:59.961Z,23.90
2023-02-06T00:57:26.620Z,25.70
2023-02-06T00:59:54.328Z,23.98
2023-02-06T01:02:21.036Z,25.98
2023-02-06T01:04:47.698Z,29.20
2023-02-06T01:07:14.434Z,25.50
2023-02-06T01:09:41.488Z,26.30
2023-02-06T01:12:08.182Z,28.27
2023-02-06T01:14:34.888Z,29.33
2023-02-06T01:17:01.539Z,31.20
2023-02-06T01:19:28.206Z,32.33
2023-02-06T01:21:54.893Z,30.35
2023-02-06T01:24:21.543Z,29.27
2023-02-06T01:26:48.172Z,25.48
2023-02-06T01:29:14.886Z,30.60
2023-02-06T01:31:41.657Z,27.50
2023-02-06T01:34:10.328Z,22.92
2023-02-06T01:36:36.988Z,25.75
2023-02-06T01:39:05.089Z,24.52
2023-02-06T01:41:31.877Z,22.48
2023-02-06T01:44:15.729Z,24.23
2023-02-06T01:46:47.278Z,25.85
2023-02-06T01:49:18.230Z,26.85
2023-02-06T01:51:45.993Z,25.55
2023-02-06T01:54:13.968Z,25.15
2023-02-06T01:56:47.712Z,24.83
2023-02-06T01:59:14.586Z,33.97
2023-02-06T02:01:42.014Z,24.70
2023-02-06T02:04:14.247Z,35.08
2023-02-06T02:06:41.504Z,27.65
2023-02-06T02:09:08.536Z,31.55
2023-02-06T02:11:38.437Z,30.50
2023-02-06T02:14:08.654Z,29.55
2023-02-06T02:16:52.098Z,27.60
2023-02-06T02:19:56.530Z,30.60
2023-02-06T02:22:46.223Z,32.53
2023-02-06T02:25:15.854Z,35.88
2023-02-06T02:27:57.903Z,33.58
2023-02-06T02:30:58.041Z,35.38
2023-02-06T02:34:00.641Z,31.42
2023-02-06T02:36:37.581Z,35.45
2023-02-06T02:39:21.683Z,34.28
2023-02-06T02:41:56.543Z,35.33
2023-02-06T02:44:33.348Z,35.70
2023-02-06T02:47:05.036Z,42.80
2023-02-06T02:49:34.528Z,40.08
2023-02-06T02:52:02.474Z,42.92
2023-02-06T02:54:29.159Z,38.95
2023-02-06T02:57:01.164Z,51.45
2023-02-06T02:59:37.916Z,47.78
2023-02-06T03:02:14.620Z,38.42
2023-02-06T03:04:49.774Z,47.72
2023-02-06T03:07:44.141Z,33.27
2023-02-06T03:10:20.469Z,36.25
2023-02-06T03:13:03.256Z,38.83
2023-02-06T03:15:46.994Z,40.15
2023-02-06T03:18:23.918Z,31.60
2023-02-06T03:20:52.168Z,30.45
2023-02-06T03:23:30.541Z,30.20
2023-02-06T03:26:01.847Z,27.70
2023-02-06T03:28:33.900Z,27.38
2023-02-06T03:31:05.304Z,32.05
2023-02-06T03:33:45.338Z,32.13
2023-02-06T03:36:17.021Z,35.28
2023-02-06T03:38:46.882Z,34.28
2023-02-06T03:41:15.339Z,30.58
2023-02-06T03:43:45.485Z,27.02
2023-02-06T03:46:14.930Z,27.92
2023-02-06T03:48:49.577Z,29.80
2023-02-06T03:51:24.175Z,28.60
2023-02-06T03:53:55.536Z,26.25
2023-02-06T03:56:29.785Z,32.72
2023-02-06T03:58:56.470Z,28.02
2023-02-06T04:01:23.918Z,28.05
2023-02-06T04:03:51.254Z,27.75
2023-02-06T04:06:18.351Z,24.95
2023-02-06T04:08:45.022Z,26.13
2023-02-06T04:11:11.793Z,28.48
2023-02-06T04:13:38.497Z,26.70
2023-02-06T04:16:05.394Z,30.30
2023-02-06T04:18:32.101Z,26.80
2023-02-06T04:21:06.396Z,26.88
2023-02-06T04:23:33.247Z,32.00
2023-02-06T04:26:00.131Z,33.15
2023-02-06T04:28:27.018Z,39.33
2023-02-06T04:30:54.080Z,37.22
2023-02-06T04:33:20.979Z,28.92
2023-02-06T04:35:48.781Z,32.53
2023-02-06T04:38:15.707Z,31.33
2023-02-06T04:40:42.973Z,28.98
2023-02-06T04:43:09.767Z,39.92
2023-02-06T04:45:36.640Z,30.95
2023-02-06T04:48:03.612Z,33.60
2023-02-06T04:50:31.795Z,31.83
2023-02-06T04:52:58.692Z,32.05
2023-02-06T04:55:25.356Z,32.88
2023-02-06T04:57:52.112Z,33.47
2023-02-06T05:00:18.860Z,32.20
2023-02-06T05:02:45.584Z,32.80
2023-02-06T05:05:14.370Z,28.20
2023-02-06T05:07:41.019Z,28.05
2023-02-06T05:10:09.273Z,26.30
2023-02-06T05:12:36.378Z,27.73
2023-02-06T05:15:03.753Z,27.15
2023-02-06T05:17:30.444Z,28.90
2023-02-06T05:19:58.380Z,31.48
2023-02-06T05:22:25.767Z,33.10
2023-02-06T05:24:52.444Z,28.08
2023-02-06T05:27:19.318Z,31.38
2023-02-06T05:29:45.995Z,32.17
2023-02-06T05:32:12.622Z,29.60
2023-02-06T05:34:39.269Z,29.15
2023-02-06T05:37:06.020Z,29.38
2023-02-06T05:39:32.665Z,27.90
2023-02-06T05:41:59.304Z,29.30
2023-02-06T05:44:26.079Z,29.83
2023-02-06T05:46:52.789Z,27.85
2023-02-06T05:49:19.472Z,29.92
2023-02-06T05:51:46.206Z,29.38
2023-02-06T05:54:13.148Z,29.88
2023-02-06T05:56:39.830Z,25.95
2023-02-06T05:59:06.571Z,27.02
2023-02-06T06:01:33.247Z,30.10
2023-02-06T06:04:00.275Z,25.23
2023-02-06T06:06:26.918Z,26.73
2023-02-06T06:08:53.648Z,26.35
2023-02-06T06:11:20.774Z,27.33
2023-02-06T06:13:47.411Z,29.27
2023-02-06T06:16:14.151Z,27.98
2023-02-06T06:18:40.849Z,32.15
2023-02-06T06:21:07.523Z,27.27
2023-02-06T06:23:34.193Z,25.63
2023-02-06T06:26:00.842Z,30.52
2023-02-06T06:28:27.570Z,25.33
2023-02-06T06:31:02.632Z,24.52
2023-02-06T06:33:29.520Z,22.75
2023-02-06T06:35:56.269Z,26.83
2023-02-06T06:38:23.511Z,25.17
2023-02-06T06:40:50.359Z,27.85
2023-02-06T06:43:17.082Z,24.42
2023-02-06T06:45:43.848Z,28.98
2023-02-06T06:48:10.534Z,26.92
2023-02-06T06:50:37.652Z,26.67
2023-02-06T06:53:04.399Z,27.95
2023-02-06T06:55:31.384Z,26.83
2023-02-06T06:57:58.138Z,27.65
2023-02-06T07:00:24.973Z,32.85
2023-02-06T07:02:51.741Z,24.80
2023-02-06T07:05:18.542Z,26.48
2023-02-06T07:07:45.188Z,26.10
2023-02-06T07:10:12.541Z,26.17
2023-02-06T07:12:39.500Z,26.08
2023-02-06T07:15:07.216Z,27.83
2023-02-06T07:17:33.946Z,28.02
2023-02-06T07:20:00.611Z,25.23
2023-02-06T07:22:27.372Z,29.27
2023-02-06T07:24:54.577Z,25.80
2023-02-06T07:27:21.303Z,29.38
2023-02-06T07:29:47.943Z,31.88
2023-02-06T07:32:14.601Z,36.88
2023-02-06T07:34:41.266Z,28.58
2023-02-06T07:37:07.963Z,27.42
2023-02-06T07:39:35.164Z,29.52
2023-02-06T07:42:01.859Z,27.30
2023-02-06T07:44:28.493Z,31.48
2023-02-06T07:46:55.211Z,29.95
2023-02-06T07:49:21.830Z,28.45
2023-02-06T07:51:48.571Z,34.58
2023-02-06T07:54:15.527Z,25.20
2023-02-06T07:56:42.685Z,29.35
2023-02-06T07:59:09.623Z,25.98
2023-02-06T08:01:36.667Z,23.45
2023-02-06T08:04:03.979Z,25.00
2023-02-06T08:06:30.783Z,25.55
2023-02-06T08:08:57.724Z,26.25
2023-02-06T08:11:27.644Z,26.95
2023-02-06T08:13:54.406Z,38.05
2023-02-06T08:16:22.816Z,31.40
2023-02-06T08:18:49.943Z,29.55
2023-02-06T08:21:22.093Z,27.65
2023-02-06T08:23:58.185Z,30.80
2023-02-06T08:26:26.935Z,32.90
2023-02-06T08:28:54.968Z,38.90
2023-02-06T08:31:26.161Z,32.15
2023-02-06T08:33:53.177Z,29.70
2023-02-06T08:36:21.240Z,29.63
2023-02-06T08:38:48.685Z,28.13
2023-02-06T08:41:18.276Z,35.70
2023-02-06T08:43:49.115Z,64.38
2023-02-06T08:46:17.147Z,33.72
2023-02-06T08:48:44.332Z,30.60
2023-02-06T08:51:12.486Z,30.95
2023-02-06T08:53:39.323Z,32.42
2023-02-06T08:56:08.691Z,35.95
2023-02-06T08:58:36.337Z,28.23
2023-02-06T09:01:13.584Z,40.53
2023-02-06T09:03:41.736Z,31.67
2023-02-06T09:06:10.365Z,35.33
2023-02-06T09:08:38.346Z,25.17
2023-02-06T09:11:07.646Z,26.50
2023-02-06T09:13:34.730Z,26.25
2023-02-06T09:16:01.997Z,30.13
2023-02-06T09:18:28.717Z,24.05
2023-02-06T09:21:11.412Z,26.17
2023-02-06T09:23:39.654Z,24.83
2023-02-06T09:26:06.598Z,32.08
2023-02-06T09:28:34.004Z,25.63
2023-02-06T09:31:00.905Z,29.55
2023-02-06T09:33:27.780Z,32.58
2023-02-06T09:36:05.957Z,35.35
2023-02-06T09:38:32.685Z,29.98
2023-02-06T09:41:02.074Z,29.52
2023-02-06T09:43:31.723Z,26.67
2023-02-06T09:46:02.389Z,24.65
2023-02-06T09:48:32.693Z,26.77
2023-02-06T09:51:05.164Z,24.38
2023-02-06T09:53:40.687Z,111.45
2023-02-06T09:56:19.261Z,31.60
2023-02-06T09:58:54.935Z,27.77
2023-02-06T10:01:39.488Z,26.52
2023-02-06T10:04:18.289Z,22.52
2023-02-06T10:06:50.834Z,22.10
2023-02-06T10:09:29.334Z,23.77
2023-02-06T10:11:58.366Z,24.98
2023-02-06T10:14:45.113Z,27.23
2023-02-06T10:17:35.932Z,25.73
2023-02-06T10:20:13.582Z,26.85
2023-02-06T10:23:02.174Z,29.08
2023-02-06T10:25:33.294Z,26.90
2023-02-06T10:28:07.996Z,22.98
2023-02-06T10:30:55.464Z,25.98
2023-02-06T10:33:35.009Z,21.75
2023-02-06T10:36:33.863Z,31.55
2023-02-06T10:39:32.975Z,26.25
2023-02-06T10:42:22.772Z,23.52
2023-02-06T10:45:20.249Z,26.40
2023-02-06T10:48:09.654Z,20.55
2023-02-06T10:50:54.987Z,21.83
2023-02-06T10:53:47.147Z,25.75
2023-02-06T10:56:16.988Z,19.95
2023-02-06T10:58:52.860Z,20.58
2023-02-06T11:01:26.380Z,20.25
2023-02-06T11:04:05.907Z,19.63
2023-02-06T11:06:32.969Z,19.95
2023-02-06T11:08:59.738Z,23.35
2023-02-06T11:11:32.324Z,19.60
2023-02-06T11:14:13.054Z,17.60
2023-02-06T11:16:41.690Z,24.98
2023-02-06T11:19:31.980Z,22.00
2023-02-06T11:22:04.838Z,17.00
2023-02-06T11:24:31.840Z,16.73
2023-02-06T11:27:01.362Z,17.45
2023-02-06T11:29:39.318Z,17.40
2023-02-06T11:32:08.067Z,18.42
2023-02-06T11:34:44.144Z,21.45
2023-02-06T11:40:17.130Z,20.40
2023-02-06T11:43:12.980Z,21.98
2023-02-06T11:45:40.911Z,24.23
2023-02-06T11:48:38.188Z,23.77
2023-02-06T11:53:32.676Z,22.88
2023-02-06T11:56:05.600Z,30.35
2023-02-06T11:58:32.883Z,35.05
2023-02-06T12:01:15.905Z,43.75
2023-02-06T12:03:51.658Z,31.00
2023-02-06T12:06:30.527Z,29.67
2023-02-06T12:09:00.784Z,35.65
2023-02-06T12:11:56.519Z,30.52
2023-02-06T12:14:37.072Z,36.83
2023-02-06T12:17:09.820Z,28.73
2023-02-06T12:19:50.351Z,27.05
2023-02-06T12:22:25.371Z,25.00
2023-02-06T12:24:57.116Z,20.58
2023-02-06T12:27:38.842Z,28.27
2023-02-06T12:30:30.089Z,23.63
2023-02-06T12:33:17.110Z,23.05
2023-02-06T12:35:55.935Z,26.52
2023-02-06T12:38:58.835Z,22.20
2023-02-06T12:41:49.919Z,27.48
2023-02-06T12:44:19.434Z,19.58
2023-02-06T12:46:50.610Z,23.08
2023-02-06T12:49:30.002Z,32.30
2023-02-06T12:52:04.790Z,27.70
2023-02-06T12:54:46.211Z,39.00
2023-02-06T12:57:26.529Z,33.25
2023-02-06T13:00:31.099Z,32.00
2023-02-06T13:03:14.620Z,26.02
2023-02-06T13:05:47.314Z,25.45
2023-02-06T13:08:26.973Z,22.50
2023-02-06T13:11:22.765Z,20.58
2023-02-06T13:13:49.683Z,18.77
2023-02-06T13:16:16.493Z,20.75
2023-02-06T13:18:45.425Z,26.48
2023-02-06T13:21:23.385Z,27.48
2023-02-06T13:24:17.772Z,27.33
2023-02-06T13:26:53.314Z,25.17
2023-02-06T13:29:33.305Z,21.42
2023-02-06T13:32:15.433Z,29.15
2023-02-06T13:34:43.949Z,24.15
2023-02-06T13:37:39.475Z,21.13
2023-02-06T13:40:24.249Z,21.48
2023-02-06T13:43:09.058Z,16.85
2023-02-06T13:45:41.774Z,21.10
2023-02-06T13:48:29.233Z,21.75
2023-02-06T13:51:16.771Z,14.45
2023-02-06T13:54:01.940Z,16.65
2023-02-06T13:56:52.354Z,18.83
2023-02-06T13:59:27.906Z,17.85
2023-02-06T14:01:55.715Z,21.35
2023-02-06T14:04:27.071Z,20.02
2023-02-06T14:07:02.147Z,19.92
2023-02-06T14:10:02.542Z,24.38
2023-02-06T14:12:55.811Z,16.83
2023-02-06T14:15:28.993Z,19.45
2023-02-06T14:18:03.312Z,19.73
2023-02-06T14:20:49.909Z,21.48
2023-02-06T14:26:40.027Z,17.60
2023-02-06T14:29:18.626Z,15.82
2023-02-06T14:32:13.785Z,15.48
2023-02-06T14:35:01.579Z,19.02
2023-02-06T14:37:43.231Z,19.52
2023-02-06T14:40:33.487Z,18.48
2023-02-06T14:43:04.102Z,15.85
2023-02-06T14:45:42.097Z,17.00
2023-02-06T14:48:26.288Z,14.23
2023-02-06T14:50:56.622Z,15.13
2023-02-06T14:53:28.641Z,13.45
2023-02-06T14:56:16.829Z,18.92
2023-02-06T14:58:46.321Z,13.52
2023-02-06T15:01:18.977Z,9.95
2023-02-06T15:03:48.086Z,18.23
2023-02-06T15:06:37.643Z,20.13
2023-02-06T15:09:05.499Z,13.90
2023-02-06T15:11:33.064Z,17.60
2023-02-06T15:14:05.930Z,15.77
2023-02-06T15:16:46.328Z,16.10
2023-02-06T15:19:19.023Z,14.98
2023-02-06T15:21:45.917Z,14.77
2023-02-06T15:24:44.360Z,19.20
2023-02-06T15:27:30.692Z,11.05
2023-02-06T15:29:58.330Z,11.18
2023-02-06T15:32:27.817Z,12.18
2023-02-06T15:34:54.672Z,14.02
2023-02-06T15:37:25.698Z,10.23
2023-02-06T15:39:53.446Z,14.48
2023-02-06T15:42:22.193Z,16.15
2023-02-06T15:44:49.804Z,14.10
2023-02-06T15:47:19.202Z,12.77
2023-02-06T15:49:49.633Z,13.52
2023-02-06T15:52:36.241Z,12.55
2023-02-06T15:55:03.074Z,12.23
2023-02-06T15:57:38.427Z,13.30
2023-02-06T16:00:09.597Z,12.35
2023-02-06T16:02:39.680Z,11.98
2023-02-06T16:05:08.124Z,13.05
2023-02-06T16:07:36.031Z,10.55
2023-02-06T16:10:08.774Z,17.27
2023-02-06T16:12:43.278Z,14.13
2023-02-06T16:15:30.195Z,39.17
2023-02-06T16:17:59.917Z,11.95
2023-02-06T16:20:32.210Z,13.65
2023-02-06T16:23:19.844Z,13.18
2023-02-06T16:25:49.988Z,10.52
2023-02-06T16:28:22.986Z,13.40
2023-02-06T16:31:00.136Z,13.85
2023-02-06T16:33:40.355Z,12.13
2023-02-06T16:36:07.768Z,27.27
2023-02-06T16:38:34.521Z,22.65
2023-02-06T16:41:01.237Z,12.50
2023-02-06T16:43:28.874Z,14.57
2023-02-06T16:45:55.753Z,11.13
2023-02-06T16:48:22.414Z,12.45
2023-02-06T16:50:49.378Z,15.02
2023-02-06T16:53:22.700Z,13.20
2023-02-06T16:55:50.502Z,11.65
2023-02-06T16:58:23.095Z,12.35
2023-02-06T17:00:49.924Z,9.45
2023-02-06T17:03:17.696Z,17.15
2023-02-06T17:05:45.747Z,25.17
2023-02-06T17:08:21.711Z,15.05
2023-02-06T17:10:48.835Z,13.52
2023-02-06T17:13:17.550Z,13.88
2023-02-06T17:15:47.055Z,16.63
2023-02-06T17:18:16.473Z,16.63
2023-02-06T17:20:46.372Z,11.13
2023-02-06T17:23:14.203Z,17.33
2023-02-06T17:25:43.366Z,11.10
2023-02-06T17:28:14.090Z,11.70
2023-02-06T17:30:41.293Z,12.18
2023-02-06T17:33:08.443Z,13.05
2023-02-06T17:35:38.784Z,15.45
2023-02-06T17:38:07.065Z,11.38
2023-02-06T17:40:36.073Z,11.80
2023-02-06T17:43:04.614Z,12.50
2023-02-06T17:45:31.748Z,13.73
2023-02-06T17:47:58.636Z,10.80
2023-02-06T17:50:27.317Z,16.45
2023-02-06T17:52:55.670Z,12.88
2023-02-06T17:55:23.750Z,12.73
2023-02-06T17:57:51.071Z,14.07
2023-02-06T18:00:22.136Z,12.27
2023-02-06T18:02:49.818Z,14.00
2023-02-06T18:05:16.594Z,13.65
2023-02-06T18:07:43.329Z,13.52
2023-02-06T18:10:11.183Z,17.35
2023-02-06T18:12:38.600Z,16.25
2023-02-06T18:15:05.809Z,14.80
2023-02-06T18:17:32.534Z,13.80
2023-02-06T18:19:59.270Z,12.63
2023-02-06T18:22:26.388Z,21.05
2023-02-06T18:24:53.145Z,12.10
2023-02-06T18:27:21.319Z,13.55
2023-02-06T18:29:50.838Z,17.20
2023-02-06T18:32:18.994Z,11.68
2023-02-06T18:34:46.450Z,16.33
2023-02-06T18:37:13.371Z,13.40
2023-02-06T18:39:40.075Z,11.48
2023-02-06T18:42:25.519Z,13.20
2023-02-06T18:44:52.269Z,14.02
2023-02-06T18:47:19.705Z,13.43
2023-02-06T18:49:46.781Z,13.18
2023-02-06T18:52:13.576Z,13.25
2023-02-06T18:54:40.354Z,22.75
2023-02-06T18:57:07.185Z,15.50
2023-02-06T18:59:34.794Z,14.50
2023-02-06T19:02:02.151Z,10.70
2023-02-06T19:04:29.001Z,9.50
2023-02-06T19:06:55.761Z,7.43
2023-02-06T19:09:22.493Z,8.40
2023-02-06T19:11:49.459Z,8.88
2023-02-06T19:14:17.816Z,7.45
2023-02-06T19:16:47.274Z,9.60
2023-02-06T19:19:14.309Z,10.65
2023-02-06T19:21:41.643Z,11.95
2023-02-06T19:24:11.157Z,59.03
2023-02-06T19:26:37.846Z,14.85
2023-02-06T19:29:04.564Z,15.07
2023-02-06T19:31:32.279Z,9.95
2023-02-06T19:34:00.717Z,10.20
2023-02-06T19:36:29.268Z,11.15
2023-02-06T19:38:58.511Z,8.98
2023-02-06T19:41:27.741Z,9.20
2023-02-06T19:43:55.815Z,7.32
2023-02-06T19:46:25.080Z,10.23
2023-02-06T19:48:52.646Z,9.13
2023-02-06T19:51:29.046Z,8.75
2023-02-06T19:53:56.877Z,10.93
2023-02-06T19:56:34.536Z,9.88
2023-02-06T19:59:03.609Z,8.88
2023-02-06T20:01:30.865Z,10.00
2023-02-06T20:03:59.400Z,9.23
2023-02-06T20:06:27.220Z,10.88
2023-02-06T20:08:54.153Z,9.25
2023-02-06T20:11:22.021Z,9.30
2023-02-06T20:13:52.027Z,8.30
2023-02-06T20:16:23.899Z,11.07
2023-02-06T20:18:50.816Z,14.30
2023-02-06T20:21:20.021Z,10.48
2023-02-06T20:23:46.906Z,9.23
2023-02-06T20:26:13.582Z,6.13
2023-02-06T20:28:40.280Z,6.30
2023-02-06T20:31:10.754Z,7.25
2023-02-06T20:33:38.449Z,5.47
2023-02-06T20:36:09.986Z,7.05
2023-02-06T20:38:37.168Z,5.20
2023-02-06T20:41:07.173Z,6.45
2023-02-06T20:43:35.800Z,5.72
2023-02-06T20:46:06.858Z,9.63
2023-02-06T20:48:36.859Z,6.22
2023-02-06T20:51:05.512Z,8.27
2023-02-06T20:53:32.295Z,7.43
2023-02-06T20:55:59.237Z,22.40
2023-02-06T20:58:25.989Z,7.07
2023-02-06T21:00:53.287Z,7.30
2023-02-06T21:03:20.205Z,5.95
2023-02-06T21:05:58.415Z,4.82
2023-02-06T21:08:26.634Z,5.57
2023-02-06T21:10:53.415Z,7.60
2023-02-06T21:13:20.205Z,6.05
2023-02-06T21:15:56.464Z,5.90
2023-02-06T21:18:25.233Z,8.82
2023-02-06T21:20:53.149Z,6.10
2023-02-06T21:23:19.830Z,7.22
2023-02-06T21:25:54.092Z,8.35
2023-02-06T21:28:21.540Z,7.40
2023-02-06T21:30:49.407Z,7.90
2023-02-06T21:33:16.629Z,10.93
2023-02-06T21:35:52.599Z,7.95
2023-02-06T21:40:46.808Z,10.85
2023-02-06T21:43:15.195Z,12.63
2023-02-06T21:45:42.697Z,7.50
2023-02-06T21:48:09.836Z,8.50
2023-02-06T21:50:41.089Z,9.60
2023-02-06T21:53:10.913Z,8.35
2023-02-06T21:55:44.788Z,14.30
2023-02-06T21:58:15.817Z,13.73
2023-02-06T22:00:44.702Z,9.95
2023-02-06T22:03:12.165Z,10.25
2023-02-06T22:05:39.390Z,9.77
2023-02-06T22:08:06.630Z,13.23
2023-02-06T22:10:36.933Z,10.50
2023-02-06T22:13:05.352Z,12.38
2023-02-06T22:15:32.949Z,8.43
2023-02-06T22:17:59.841Z,9.35
2023-02-06T22:20:26.962Z,12.13
2023-02-06T22:22:54.889Z,17.08
2023-02-06T22:25:21.734Z,15.63
2023-02-06T22:27:48.587Z,12.82
2023-02-06T22:30:15.691Z,10.82
2023-02-06T22:32:42.334Z,13.75
2023-02-06T22:35:09.100Z,12.05
2023-02-06T22:37:36.098Z,9.85
2023-02-06T22:40:02.845Z,9.82
2023-02-06T22:42:29.888Z,11.88
2023-02-06T22:44:56.665Z,12.20
2023-02-06T22:47:23.350Z,12.43
2023-02-06T22:49:52.432Z,12.30
2023-02-06T22:52:38.389Z,11.98
2023-02-06T22:55:05.780Z,11.90
2023-02-06T22:57:35.215Z,10.27
2023-02-06T23:00:02.041Z,10.68
2023-02-06T23:02:28.767Z,12.68
2023-02-06T23:04:55.445Z,11.45
2023-02-06T23:07:22.162Z,12.90
2023-02-06T23:09:48.837Z,11.55
2023-02-06T23:12:16.210Z,9.85
2023-02-06T23:14:43.162Z,12.68
2023-02-06T23:17:10.700Z,11.38
2023-02-06T23:19:39.180Z,11.02
2023-02-06T23:22:05.977Z,14.82
2023-02-06T23:24:32.764Z,14.27
2023-02-06T23:26:59.508Z,11.00
2023-02-06T23:29:26.432Z,13.00
2023-02-06T23:31:53.652Z,13.65
2023-02-06T23:34:23.697Z,14.55
2023-02-06T23:36:51.832Z,15.40
2023-02-06T23:39:18.590Z,11.70
2023-02-06T23:41:45.330Z,14.10
2023-02-06T23:44:12.123Z,13.82
2023-02-06T23:46:40.323Z,12.93
2023-02-06T23:49:08.042Z,15.95
2023-02-06T23:51:36.541Z,15.15
2023-02-06T23:54:04.452Z,14.60
2023-02-06T23:56:31.975Z,13.07
2023-02-06T23:59:00.042Z,15.32
